createdAt,value
2023-01-27T00:02:32.932Z,3.00
2023-01-27T00:06:34.689Z,3.00
2023-01-27T00:10:36.508Z,3.00
2023-01-27T00:14:38.220Z,2.90
2023-01-27T00:18:39.921Z,3.00
2023-01-27T00:23:00.113Z,3.00
2023-01-27T00:27:02.725Z,3.00
2023-01-27T00:31:06.117Z,3.00
2023-01-27T00:35:08.201Z,3.20
2023-01-27T00:39:11.933Z,3.10
2023-01-27T00:43:13.654Z,3.10
2023-01-27T00:47:15.296Z,3.10
2023-01-27T00:51:17.525Z,3.10
2023-01-27T00:55:20.479Z,3.10
2023-01-27T00:59:22.995Z,3.20
2023-01-27T01:03:25.228Z,3.20
2023-01-27T01:07:26.952Z,3.20
2023-01-27T01:11:28.722Z,3.20
2023-01-27T01:15:30.478Z,3.20
2023-01-27T01:19:32.202Z,3.20
2023-01-27T01:23:37.485Z,3.20
2023-01-27T01:27:39.204Z,3.20
2023-01-27T01:31:41.311Z,3.30
2023-01-27T01:35:43.383Z,3.20
2023-01-27T01:39:45.081Z,3.20
2023-01-27T01:43:47.377Z,3.30
2023-01-27T01:47:49.094Z,3.30
2023-01-27T01:51:56.155Z,3.30
2023-01-27T01:56:00.456Z,3.30
2023-01-27T02:00:09.571Z,3.20
2023-01-27T02:04:21.145Z,3.30
2023-01-27T02:08:55.517Z,3.30
2023-01-27T02:12:57.240Z,3.20
2023-01-27T02:16:59.059Z,3.30
2023-01-27T02:21:01.661Z,3.30
2023-01-27T02:25:26.560Z,3.20
2023-01-27T02:29:28.787Z,3.20
2023-01-27T02:33:30.609Z,3.20
2023-01-27T02:37:33.194Z,3.10
2023-01-27T02:41:42.740Z,3.00
2023-01-27T02:45:46.967Z,2.90
2023-01-27T02:49:49.527Z,2.80
2023-01-27T02:53:51.271Z,2.80
2023-01-27T02:57:52.951Z,2.80
2023-01-27T03:01:54.632Z,2.80
2023-01-27T03:05:56.394Z,2.80
2023-01-27T03:09:58.167Z,2.70
2023-01-27T03:13:59.935Z,2.60
2023-01-27T03:18:10.270Z,2.60
2023-01-27T03:22:11.967Z,2.60
2023-01-27T03:26:13.700Z,2.60
2023-01-27T03:30:15.595Z,2.60
2023-01-27T03:34:17.252Z,2.60
2023-01-27T03:38:37.545Z,2.60
2023-01-27T03:42:58.076Z,2.60
2023-01-27T03:46:59.951Z,2.60
2023-01-27T03:51:05.279Z,2.60
2023-01-27T03:55:09.165Z,2.60
2023-01-27T03:59:10.960Z,2.70
2023-01-27T04:03:31.220Z,2.70
2023-01-27T04:07:36.712Z,2.70
2023-01-27T04:11:57.762Z,2.60
2023-01-27T04:15:59.519Z,2.70
2023-01-27T04:20:01.256Z,2.70
2023-01-27T04:24:04.216Z,2.80
2023-01-27T04:28:06.414Z,2.80
2023-01-27T04:32:10.612Z,2.80
2023-01-27T04:36:16.239Z,2.70
2023-01-27T04:40:18.024Z,2.60
2023-01-27T04:44:22.950Z,2.60
2023-01-27T04:48:24.649Z,2.60
2023-01-27T04:52:26.381Z,2.60
2023-01-27T04:56:36.679Z,2.60
2023-01-27T05:00:38.363Z,2.60
2023-01-27T05:04:40.069Z,2.80
2023-01-27T05:08:41.973Z,2.80
2023-01-27T05:12:43.659Z,2.80
2023-01-27T05:16:45.710Z,2.70
2023-01-27T05:20:47.465Z,2.80
2023-01-27T05:24:49.223Z,2.90
2023-01-27T05:28:52.152Z,2.80
2023-01-27T05:32:53.861Z,2.80
2023-01-27T05:36:55.571Z,2.80
2023-01-27T05:41:03.902Z,2.70
2023-01-27T05:45:06.664Z,2.90
2023-01-27T05:49:09.321Z,2.90
2023-01-27T05:53:11.076Z,2.80
2023-01-27T05:57:12.778Z,2.80
2023-01-27T06:01:17.226Z,2.80
2023-01-27T06:05:18.929Z,2.80
2023-01-27T06:09:20.604Z,2.80
2023-01-27T06:13:24.054Z,2.90
2023-01-27T06:17:26.250Z,2.90
2023-01-27T06:21:28.258Z,2.90
2023-01-27T06:25:30.289Z,3.00
2023-01-27T06:29:31.903Z,3.00
2023-01-27T06:33:34.156Z,3.00
2023-01-27T06:37:35.932Z,3.00
2023-01-27T06:41:38.476Z,3.10
2023-01-27T06:45:40.561Z,3.10
2023-01-27T06:49:42.222Z,3.10
2023-01-27T06:53:43.883Z,3.10
2023-01-27T06:57:48.329Z,3.00
2023-01-27T07:01:50.000Z,3.20
2023-01-27T07:05:52.959Z,3.10
2023-01-27T07:09:54.593Z,3.20
2023-01-27T07:13:56.238Z,3.20
2023-01-27T07:18:02.153Z,3.20
2023-01-27T07:22:03.872Z,3.20
2023-01-27T07:26:12.500Z,3.20
2023-01-27T07:30:21.190Z,3.20
2023-01-27T07:34:22.836Z,3.20
2023-01-27T07:38:24.542Z,3.20
2023-01-27T07:42:26.224Z,3.20
2023-01-27T07:46:27.851Z,3.20
2023-01-27T07:50:29.933Z,3.20
2023-01-27T07:54:31.615Z,3.20
2023-01-27T07:58:33.274Z,3.30
2023-01-27T08:02:34.929Z,3.30
2023-01-27T08:06:39.769Z,3.40
2023-01-27T08:10:41.725Z,3.30
2023-01-27T08:14:43.416Z,3.40
2023-01-27T08:18:45.092Z,3.40
2023-01-27T08:22:46.764Z,3.40
2023-01-27T08:26:48.414Z,3.40
2023-01-27T08:30:53.435Z,3.40
2023-01-27T08:34:55.548Z,3.50
2023-01-27T08:38:57.247Z,3.50
2023-01-27T08:43:00.102Z,3.60
2023-01-27T08:47:01.804Z,3.60
2023-01-27T08:51:04.404Z,3.70
2023-01-27T08:55:06.372Z,3.70
2023-01-27T08:59:08.042Z,3.80
2023-01-27T09:03:09.875Z,3.80
2023-01-27T09:07:11.821Z,3.80
2023-01-27T09:11:16.611Z,3.90
2023-01-27T09:15:18.383Z,3.80
2023-01-27T09:19:19.988Z,3.90
2023-01-27T09:23:21.617Z,4.00
2023-01-27T09:27:38.001Z,4.10
2023-01-27T09:31:40.529Z,4.10
2023-01-27T09:35:46.687Z,4.20
2023-01-27T09:39:55.656Z,4.20
2023-01-27T09:44:14.869Z,4.10
2023-01-27T09:48:33.724Z,4.20
2023-01-27T09:53:13.754Z,4.30
2023-01-27T09:57:36.556Z,4.20
2023-01-27T10:02:08.350Z,4.30
2023-01-27T10:06:44.112Z,4.30
2023-01-27T10:11:04.415Z,4.30
2023-01-27T10:15:21.082Z,4.50
2023-01-27T10:19:28.761Z,4.50
2023-01-27T10:23:34.934Z,4.60
2023-01-27T10:27:37.677Z,4.60
2023-01-27T10:32:00.474Z,4.60
2023-01-27T10:36:17.129Z,4.50
2023-01-27T10:40:41.043Z,4.40
2023-01-27T10:45:04.644Z,4.50
2023-01-27T10:49:12.071Z,4.60
2023-01-27T10:53:21.494Z,4.60
2023-01-27T10:57:56.675Z,4.60
2023-01-27T11:02:07.030Z,4.60
2023-01-27T11:06:19.190Z,4.50
2023-01-27T11:10:22.434Z,4.50
2023-01-27T11:14:30.852Z,4.50
2023-01-27T11:18:37.490Z,4.50
2023-01-27T11:23:16.954Z,4.40
2023-01-27T11:27:27.463Z,4.40
2023-01-27T11:31:38.260Z,4.50
2023-01-27T11:35:40.288Z,4.50
2023-01-27T11:39:42.045Z,4.60
2023-01-27T11:43:43.853Z,4.60
2023-01-27T11:47:48.996Z,4.50
2023-01-27T11:51:50.768Z,4.60
2023-01-27T11:56:06.215Z,4.70
2023-01-27T12:00:24.638Z,4.60
2023-01-27T12:04:48.998Z,4.60
2023-01-27T12:08:50.776Z,4.70
2023-01-27T12:12:53.161Z,4.60
2023-01-27T12:16:55.004Z,4.60
2023-01-27T12:21:02.064Z,4.60
2023-01-27T12:25:05.899Z,4.70
2023-01-27T12:29:19.060Z,4.60
2023-01-27T12:33:44.327Z,4.60
2023-01-27T12:37:47.728Z,4.60
2023-01-27T12:41:50.352Z,4.60
2023-01-27T12:46:12.452Z,4.60
2023-01-27T12:50:32.237Z,4.60
2023-01-27T12:54:35.105Z,4.70
2023-01-27T12:58:43.222Z,4.80
2023-01-27T13:02:47.027Z,4.80
2023-01-27T13:07:08.184Z,4.80
2023-01-27T13:11:10.112Z,4.80
2023-01-27T13:15:28.517Z,4.90
2023-01-27T13:19:43.013Z,4.80
2023-01-27T13:23:48.075Z,4.80
2023-01-27T13:27:53.661Z,4.90
2023-01-27T13:32:07.292Z,4.80
2023-01-27T13:36:21.404Z,4.80
2023-01-27T13:40:44.523Z,4.80
2023-01-27T13:44:58.843Z,4.70
2023-01-27T13:49:30.407Z,4.80
2023-01-27T13:53:32.613Z,4.80
2023-01-27T13:57:54.677Z,4.70
2023-01-27T14:02:25.832Z,4.70
2023-01-27T14:07:05.262Z,4.60
2023-01-27T14:11:40.131Z,4.70
2023-01-27T14:16:02.409Z,4.70
2023-01-27T14:20:16.675Z,4.90
2023-01-27T14:24:40.101Z,5.00
2023-01-27T14:29:08.102Z,4.90
2023-01-27T14:33:43.062Z,4.80
2023-01-27T14:38:13.265Z,4.80
2023-01-27T14:46:35.258Z,4.70
2023-01-27T14:50:52.066Z,4.60
2023-01-27T14:55:16.937Z,4.70
2023-01-27T14:59:41.335Z,4.60
2023-01-27T15:04:07.123Z,4.50
2023-01-27T15:08:57.023Z,4.50
2023-01-27T15:12:58.699Z,4.50
2023-01-27T15:17:11.291Z,4.30
2023-01-27T15:21:15.953Z,4.30
2023-01-27T15:25:19.635Z,4.20
2023-01-27T15:29:27.416Z,4.20
2023-01-27T15:33:51.345Z,4.20
2023-01-27T15:38:05.472Z,4.10
2023-01-27T15:42:07.193Z,4.20
2023-01-27T15:46:25.533Z,4.10
2023-01-27T15:50:30.906Z,4.10
2023-01-27T15:54:34.467Z,4.10
2023-01-27T15:58:43.806Z,4.10
2023-01-27T16:02:50.821Z,4.00
2023-01-27T16:07:03.358Z,4.00
2023-01-27T16:11:30.066Z,3.90
2023-01-27T16:15:33.209Z,3.90
2023-01-27T16:19:44.268Z,3.90
2023-01-27T16:23:58.190Z,3.80
2023-01-27T16:28:24.375Z,3.80
2023-01-27T16:32:37.662Z,3.80
2023-01-27T16:36:39.387Z,3.80
2023-01-27T16:40:47.022Z,3.80
2023-01-27T16:44:51.295Z,3.80
2023-01-27T16:48:53.508Z,3.70
2023-01-27T16:52:55.343Z,3.80
2023-01-27T16:56:58.165Z,3.70
2023-01-27T17:01:01.258Z,3.70
2023-01-27T17:05:15.488Z,3.70
2023-01-27T17:09:31.582Z,3.80
2023-01-27T17:13:44.975Z,3.80
2023-01-27T17:17:49.001Z,3.80
2023-01-27T17:21:54.453Z,3.80
2023-01-27T17:25:56.725Z,3.80
2023-01-27T17:30:26.372Z,3.70
2023-01-27T17:34:28.327Z,3.70
2023-01-27T17:38:46.337Z,3.70
2023-01-27T17:42:49.325Z,3.60
2023-01-27T17:46:52.148Z,3.70
2023-01-27T17:50:53.851Z,3.70
2023-01-27T17:54:55.840Z,3.70
2023-01-27T17:59:05.004Z,3.70
2023-01-27T18:03:18.239Z,3.70
2023-01-27T18:07:19.991Z,3.60
2023-01-27T18:11:31.674Z,3.50
2023-01-27T18:15:47.801Z,3.60
2023-01-27T18:19:51.557Z,3.60
2023-01-27T18:23:56.344Z,3.60
2023-01-27T18:27:59.892Z,3.60
2023-01-27T18:32:29.719Z,3.50
2023-01-27T18:36:35.587Z,3.40
2023-01-27T18:40:37.450Z,3.50
2023-01-27T18:44:39.079Z,3.40
2023-01-27T18:48:40.759Z,3.40
2023-01-27T18:52:43.126Z,3.40
2023-01-27T18:56:44.763Z,3.40
2023-01-27T19:00:54.710Z,3.40
2023-01-27T19:04:56.422Z,3.30
2023-01-27T19:08:58.094Z,3.40
2023-01-27T19:13:01.266Z,3.30
2023-01-27T19:17:09.994Z,3.30
2023-01-27T19:21:14.477Z,3.20
2023-01-27T19:25:16.448Z,3.20
2023-01-27T19:29:18.162Z,3.30
2023-01-27T19:33:22.601Z,3.30
2023-01-27T19:37:24.446Z,3.30
2023-01-27T19:41:26.082Z,3.40
2023-01-27T19:45:28.272Z,3.40
2023-01-27T19:49:30.232Z,3.30
2023-01-27T19:53:32.344Z,3.30
2023-01-27T19:57:35.552Z,3.30
2023-01-27T20:01:37.278Z,3.30
2023-01-27T20:05:38.935Z,3.30
2023-01-27T20:09:40.621Z,3.30
2023-01-27T20:13:42.302Z,3.40
2023-01-27T20:17:44.231Z,3.40
2023-01-27T20:21:46.397Z,3.40
2023-01-27T20:25:48.081Z,3.40
2023-01-27T20:29:49.708Z,3.40
2023-01-27T20:33:52.289Z,3.30
2023-01-27T20:37:54.460Z,3.20
2023-01-27T20:41:56.067Z,3.30
2023-01-27T20:46:05.259Z,3.20
2023-01-27T20:50:09.558Z,3.20
2023-01-27T20:54:12.314Z,3.20
2023-01-27T20:58:13.921Z,3.20
2023-01-27T21:02:16.950Z,3.10
2023-01-27T21:06:19.817Z,3.10
2023-01-27T21:10:21.580Z,3.20
2023-01-27T21:14:23.480Z,3.10
2023-01-27T21:18:25.475Z,3.20
2023-01-27T21:22:27.125Z,3.20
2023-01-27T21:26:28.757Z,3.10
2023-01-27T21:30:30.429Z,3.10
2023-01-27T21:34:32.124Z,3.20
2023-01-27T21:38:33.851Z,3.20
2023-01-27T21:42:54.276Z,3.30
2023-01-27T21:46:55.969Z,3.20
2023-01-27T21:50:57.642Z,3.30
2023-01-27T21:55:01.188Z,3.30
2023-01-27T21:59:02.951Z,3.20
2023-01-27T22:03:04.697Z,3.10
2023-01-27T22:07:06.906Z,3.10
2023-01-27T22:11:12.497Z,3.00
2023-01-27T22:15:16.041Z,3.10
2023-01-27T22:19:17.964Z,3.10
2023-01-27T22:23:20.389Z,3.10
2023-01-27T22:27:22.107Z,3.10
2023-01-27T22:31:23.836Z,3.10
2023-01-27T22:35:25.836Z,3.10
2023-01-27T22:39:27.550Z,3.00
2023-01-27T22:43:29.296Z,3.00
2023-01-27T22:47:30.926Z,3.00
2023-01-27T22:51:32.859Z,3.00
2023-01-27T22:55:34.544Z,3.00
2023-01-27T22:59:36.257Z,3.00
2023-01-27T23:03:38.119Z,2.90
2023-01-27T23:07:39.789Z,2.90
2023-01-27T23:11:41.426Z,2.80
2023-01-27T23:15:43.093Z,2.90
2023-01-27T23:19:44.761Z,2.90
2023-01-27T23:23:46.545Z,2.80
2023-01-27T23:27:48.254Z,2.80
2023-01-27T23:31:50.057Z,2.80
2023-01-27T23:35:57.829Z,2.80
2023-01-27T23:39:59.490Z,2.80
2023-01-27T23:44:01.203Z,2.80
2023-01-27T23:48:03.026Z,2.80
2023-01-27T23:52:05.022Z,2.80
2023-01-27T23:56:07.662Z,2.70
